sensor_id;sensor_type;location;lat;lon;timestamp;P1;durP1;ratioP1;P2;durP2;ratioP2
64854;SDS011;51321;50.428;8.378;2022-12-07T00:00:10;22.60;;;16.55;;
64854;SDS011;51321;50.428;8.378;2022-12-07T00:02:33;22.02;;;16.75;;
64854;SDS011;51321;50.428;8.378;2022-12-07T00:04:55;24.02;;;16.95;;
64854;SDS011;51321;50.428;8.378;2022-12-07T00:07:17;22.98;;;17.02;;
64854;SDS011;51321;50.428;8.378;2022-12-07T00:09:39;27.92;;;17.48;;
64854;SDS011;51321;50.428;8.378;2022-12-07T00:12:03;26.55;;;19.00;;
64854;SDS011;51321;50.428;8.378;2022-12-07T00:14:25;31.17;;;19.08;;
64854;SDS011;51321;50.428;8.378;2022-12-07T00:16:48;31.52;;;19.75;;
64854;SDS011;51321;50.428;8.378;2022-12-07T00:19:13;28.20;;;19.10;;
64854;SDS011;51321;50.428;8.378;2022-12-07T00:21:35;23.98;;;17.45;;
64854;SDS011;51321;50.428;8.378;2022-12-07T00:28:46;23.50;;;14.50;;
64854;SDS011;51321;50.428;8.378;2022-12-07T00:31:11;19.15;;;14.52;;
64854;SDS011;51321;50.428;8.378;2022-12-07T00:33:33;24.05;;;16.75;;
64854;SDS011;51321;50.428;8.378;2022-12-07T00:35:56;24.00;;;16.67;;
64854;SDS011;51321;50.428;8.378;2022-12-07T00:38:19;24.90;;;17.38;;
64854;SDS011;51321;50.428;8.378;2022-12-07T00:40:41;20.92;;;15.10;;
64854;SDS011;51321;50.428;8.378;2022-12-07T00:43:03;24.45;;;17.73;;
64854;SDS011;51321;50.428;8.378;2022-12-07T00:45:26;28.95;;;17.92;;
64854;SDS011;51321;50.428;8.378;2022-12-07T00:47:48;22.27;;;15.85;;
64854;SDS011;51321;50.428;8.378;2022-12-07T00:50:10;25.08;;;17.25;;
64854;SDS011;51321;50.428;8.378;2022-12-07T00:52:32;20.63;;;14.85;;
64854;SDS011;51321;50.428;8.378;2022-12-07T00:54:54;22.58;;;14.98;;
64854;SDS011;51321;50.428;8.378;2022-12-07T00:57:16;17.88;;;14.15;;
64854;SDS011;51321;50.428;8.378;2022-12-07T00:59:38;21.98;;;14.40;;
64854;SDS011;51321;50.428;8.378;2022-12-07T01:02:02;19.77;;;13.65;;
64854;SDS011;51321;50.428;8.378;2022-12-07T01:04:24;17.27;;;13.15;;
64854;SDS011;51321;50.428;8.378;2022-12-07T01:06:46;17.80;;;11.38;;
64854;SDS011;51321;50.428;8.378;2022-12-07T01:09:08;16.00;;;11.85;;
64854;SDS011;51321;50.428;8.378;2022-12-07T01:11:30;18.60;;;13.10;;
64854;SDS011;51321;50.428;8.378;2022-12-07T01:13:53;18.15;;;12.98;;
64854;SDS011;51321;50.428;8.378;2022-12-07T01:16:17;15.35;;;12.13;;
64854;SDS011;51321;50.428;8.378;2022-12-07T01:18:41;16.83;;;11.40;;
64854;SDS011;51321;50.428;8.378;2022-12-07T01:21:07;16.45;;;12.05;;
64854;SDS011;51321;50.428;8.378;2022-12-07T01:23:32;18.85;;;12.98;;
64854;SDS011;51321;50.428;8.378;2022-12-07T01:25:55;16.35;;;11.73;;
64854;SDS011;51321;50.428;8.378;2022-12-07T01:30:39;15.82;;;11.60;;
64854;SDS011;51321;50.428;8.378;2022-12-07T01:33:01;15.32;;;10.63;;
64854;SDS011;51321;50.428;8.378;2022-12-07T01:35:25;17.65;;;12.10;;
64854;SDS011;51321;50.428;8.378;2022-12-07T01:37:47;16.23;;;11.88;;
64854;SDS011;51321;50.428;8.378;2022-12-07T01:40:10;14.07;;;10.13;;
64854;SDS011;51321;50.428;8.378;2022-12-07T01:42:32;15.25;;;10.52;;
64854;SDS011;51321;50.428;8.378;2022-12-07T01:48:05;15.57;;;10.60;;
64854;SDS011;51321;50.428;8.378;2022-12-07T01:50:31;16.90;;;10.00;;
64854;SDS011;51321;50.428;8.378;2022-12-07T01:52:54;13.15;;;9.90;;
64854;SDS011;51321;50.428;8.378;2022-12-07T01:55:20;16.17;;;10.15;;
64854;SDS011;51321;50.428;8.378;2022-12-07T01:57:43;14.55;;;9.30;;
64854;SDS011;51321;50.428;8.378;2022-12-07T02:00:09;13.27;;;9.00;;
64854;SDS011;51321;50.428;8.378;2022-12-07T02:02:36;14.05;;;9.38;;
64854;SDS011;51321;50.428;8.378;2022-12-07T02:05:01;13.57;;;9.45;;
64854;SDS011;51321;50.428;8.378;2022-12-07T02:07:28;11.88;;;8.80;;
64854;SDS011;51321;50.428;8.378;2022-12-07T02:09:51;11.65;;;8.75;;
64854;SDS011;51321;50.428;8.378;2022-12-07T02:12:13;13.02;;;8.98;;
64854;SDS011;51321;50.428;8.378;2022-12-07T02:14:35;13.43;;;8.88;;
64854;SDS011;51321;50.428;8.378;2022-12-07T02:17:01;9.85;;;7.90;;
64854;SDS011;51321;50.428;8.378;2022-12-07T02:19:50;13.18;;;8.60;;
64854;SDS011;51321;50.428;8.378;2022-12-07T02:25:51;10.48;;;7.75;;
64854;SDS011;51321;50.428;8.378;2022-12-07T02:28:25;11.90;;;7.82;;
64854;SDS011;51321;50.428;8.378;2022-12-07T02:30:53;10.57;;;8.05;;
64854;SDS011;51321;50.428;8.378;2022-12-07T02:33:22;14.32;;;9.98;;
64854;SDS011;51321;50.428;8.378;2022-12-07T02:35:51;12.95;;;8.40;;
64854;SDS011;51321;50.428;8.378;2022-12-07T02:38:18;10.82;;;7.93;;
64854;SDS011;51321;50.428;8.378;2022-12-07T02:40:45;10.85;;;7.72;;
64854;SDS011;51321;50.428;8.378;2022-12-07T02:43:12;11.65;;;7.57;;
64854;SDS011;51321;50.428;8.378;2022-12-07T02:45:38;11.15;;;7.80;;
64854;SDS011;51321;50.428;8.378;2022-12-07T02:48:05;12.85;;;8.40;;
64854;SDS011;51321;50.428;8.378;2022-12-07T02:50:29;12.25;;;7.63;;
64854;SDS011;51321;50.428;8.378;2022-12-07T02:52:51;10.98;;;7.70;;
64854;SDS011;51321;50.428;8.378;2022-12-07T02:55:14;13.70;;;8.50;;
64854;SDS011;51321;50.428;8.378;2022-12-07T02:57:47;17.52;;;9.05;;
64854;SDS011;51321;50.428;8.378;2022-12-07T03:00:17;12.13;;;8.45;;
64854;SDS011;51321;50.428;8.378;2022-12-07T03:02:44;12.75;;;8.90;;
64854;SDS011;51321;50.428;8.378;2022-12-07T03:05:24;11.25;;;8.45;;
64854;SDS011;51321;50.428;8.378;2022-12-07T03:08:10;13.70;;;8.82;;
64854;SDS011;51321;50.428;8.378;2022-12-07T03:10:38;11.38;;;8.15;;
64854;SDS011;51321;50.428;8.378;2022-12-07T03:13:10;11.73;;;8.35;;
64854;SDS011;51321;50.428;8.378;2022-12-07T03:15:46;10.65;;;8.32;;
64854;SDS011;51321;50.428;8.378;2022-12-07T03:18:15;13.05;;;8.98;;
64854;SDS011;51321;50.428;8.378;2022-12-07T03:20:43;13.10;;;8.93;;
64854;SDS011;51321;50.428;8.378;2022-12-07T03:23:07;11.00;;;7.15;;
64854;SDS011;51321;50.428;8.378;2022-12-07T03:25:31;9.55;;;7.35;;
64854;SDS011;51321;50.428;8.378;2022-12-07T03:27:57;8.70;;;7.20;;
64854;SDS011;51321;50.428;8.378;2022-12-07T03:30:22;10.27;;;7.72;;
64854;SDS011;51321;50.428;8.378;2022-12-07T03:32:49;9.65;;;7.75;;
64854;SDS011;51321;50.428;8.378;2022-12-07T03:35:17;10.70;;;7.82;;
64854;SDS011;51321;50.428;8.378;2022-12-07T03:37:45;12.15;;;7.93;;
64854;SDS011;51321;50.428;8.378;2022-12-07T03:40:12;11.07;;;8.38;;
64854;SDS011;51321;50.428;8.378;2022-12-07T03:42:37;9.90;;;7.60;;
64854;SDS011;51321;50.428;8.378;2022-12-07T03:45:00;11.05;;;8.27;;
64854;SDS011;51321;50.428;8.378;2022-12-07T03:47:25;11.65;;;8.80;;
64854;SDS011;51321;50.428;8.378;2022-12-07T03:49:53;12.10;;;9.38;;
64854;SDS011;51321;50.428;8.378;2022-12-07T03:52:21;11.95;;;8.65;;
64854;SDS011;51321;50.428;8.378;2022-12-07T03:54:49;10.70;;;8.63;;
64854;SDS011;51321;50.428;8.378;2022-12-07T03:57:17;12.32;;;8.57;;
64854;SDS011;51321;50.428;8.378;2022-12-07T03:59:41;11.98;;;9.02;;
64854;SDS011;51321;50.428;8.378;2022-12-07T04:02:05;13.77;;;8.88;;
64854;SDS011;51321;50.428;8.378;2022-12-07T04:04:32;14.50;;;9.07;;
64854;SDS011;51321;50.428;8.378;2022-12-07T04:06:55;13.05;;;9.55;;
64854;SDS011;51321;50.428;8.378;2022-12-07T04:09:17;12.15;;;8.77;;
64854;SDS011;51321;50.428;8.378;2022-12-07T04:11:41;10.98;;;8.40;;
64854;SDS011;51321;50.428;8.378;2022-12-07T04:14:03;13.77;;;9.25;;
64854;SDS011;51321;50.428;8.378;2022-12-07T04:16:40;12.43;;;9.82;;
64854;SDS011;51321;50.428;8.378;2022-12-07T04:19:05;13.88;;;10.30;;
64854;SDS011;51321;50.428;8.378;2022-12-07T04:21:27;15.07;;;9.70;;
64854;SDS011;51321;50.428;8.378;2022-12-07T04:23:49;12.90;;;9.88;;
64854;SDS011;51321;50.428;8.378;2022-12-07T04:26:11;12.63;;;9.88;;
64854;SDS011;51321;50.428;8.378;2022-12-07T04:28:34;12.05;;;9.77;;
64854;SDS011;51321;50.428;8.378;2022-12-07T04:30:56;12.95;;;10.00;;
64854;SDS011;51321;50.428;8.378;2022-12-07T04:33:18;12.32;;;10.32;;
64854;SDS011;51321;50.428;8.378;2022-12-07T04:35:41;13.93;;;9.52;;
64854;SDS011;51321;50.428;8.378;2022-12-07T04:38:04;13.13;;;8.52;;
64854;SDS011;51321;50.428;8.378;2022-12-07T04:42:48;11.40;;;9.13;;
64854;SDS011;51321;50.428;8.378;2022-12-07T04:45:11;11.27;;;9.13;;
64854;SDS011;51321;50.428;8.378;2022-12-07T04:47:34;11.95;;;9.38;;
64854;SDS011;51321;50.428;8.378;2022-12-07T04:49:56;13.75;;;10.18;;
64854;SDS011;51321;50.428;8.378;2022-12-07T04:52:18;11.95;;;9.07;;
64854;SDS011;51321;50.428;8.378;2022-12-07T04:54:40;13.02;;;9.48;;
64854;SDS011;51321;50.428;8.378;2022-12-07T04:57:03;13.75;;;9.82;;
64854;SDS011;51321;50.428;8.378;2022-12-07T04:59:25;13.57;;;10.20;;
64854;SDS011;51321;50.428;8.378;2022-12-07T05:01:48;12.77;;;9.80;;
64854;SDS011;51321;50.428;8.378;2022-12-07T05:04:10;15.35;;;10.57;;
64854;SDS011;51321;50.428;8.378;2022-12-07T05:06:32;13.38;;;10.15;;
64854;SDS011;51321;50.428;8.378;2022-12-07T05:08:55;11.75;;;9.88;;
64854;SDS011;51321;50.428;8.378;2022-12-07T05:11:17;13.82;;;10.82;;
64854;SDS011;51321;50.428;8.378;2022-12-07T05:13:53;15.38;;;10.98;;
64854;SDS011;51321;50.428;8.378;2022-12-07T05:16:15;14.20;;;10.00;;
64854;SDS011;51321;50.428;8.378;2022-12-07T05:18:39;15.15;;;10.52;;
64854;SDS011;51321;50.428;8.378;2022-12-07T05:21:01;17.15;;;11.35;;
64854;SDS011;51321;50.428;8.378;2022-12-07T05:23:23;13.95;;;10.48;;
64854;SDS011;51321;50.428;8.378;2022-12-07T05:25:45;15.35;;;11.07;;
64854;SDS011;51321;50.428;8.378;2022-12-07T05:28:08;14.65;;;11.20;;
64854;SDS011;51321;50.428;8.378;2022-12-07T05:30:30;17.02;;;11.23;;
64854;SDS011;51321;50.428;8.378;2022-12-07T05:32:53;15.00;;;10.75;;
64854;SDS011;51321;50.428;8.378;2022-12-07T05:35:16;14.38;;;10.45;;
64854;SDS011;51321;50.428;8.378;2022-12-07T05:37:39;14.50;;;10.85;;
64854;SDS011;51321;50.428;8.378;2022-12-07T05:40:01;17.10;;;11.98;;
64854;SDS011;51321;50.428;8.378;2022-12-07T05:44:48;16.58;;;12.13;;
64854;SDS011;51321;50.428;8.378;2022-12-07T05:47:10;17.13;;;12.20;;
64854;SDS011;51321;50.428;8.378;2022-12-07T05:49:32;17.45;;;11.55;;
64854;SDS011;51321;50.428;8.378;2022-12-07T05:51:55;13.90;;;10.95;;
64854;SDS011;51321;50.428;8.378;2022-12-07T05:54:18;14.00;;;10.70;;
64854;SDS011;51321;50.428;8.378;2022-12-07T05:56:40;13.05;;;9.85;;
64854;SDS011;51321;50.428;8.378;2022-12-07T05:59:02;13.45;;;9.90;;
64854;SDS011;51321;50.428;8.378;2022-12-07T06:01:41;12.80;;;10.23;;
64854;SDS011;51321;50.428;8.378;2022-12-07T06:04:03;16.77;;;10.25;;
64854;SDS011;51321;50.428;8.378;2022-12-07T06:06:25;16.67;;;10.43;;
64854;SDS011;51321;50.428;8.378;2022-12-07T06:08:49;11.82;;;9.30;;
64854;SDS011;51321;50.428;8.378;2022-12-07T06:11:11;14.68;;;9.82;;
64854;SDS011;51321;50.428;8.378;2022-12-07T06:13:50;11.82;;;9.45;;
64854;SDS011;51321;50.428;8.378;2022-12-07T06:18:35;12.90;;;9.65;;
64854;SDS011;51321;50.428;8.378;2022-12-07T06:20:57;12.07;;;9.18;;
64854;SDS011;51321;50.428;8.378;2022-12-07T06:23:19;12.68;;;8.93;;
64854;SDS011;51321;50.428;8.378;2022-12-07T06:25:46;12.10;;;8.98;;
64854;SDS011;51321;50.428;8.378;2022-12-07T06:28:08;12.05;;;8.63;;
64854;SDS011;51321;50.428;8.378;2022-12-07T06:30:30;13.52;;;9.05;;
64854;SDS011;51321;50.428;8.378;2022-12-07T06:32:53;10.20;;;8.55;;
64854;SDS011;51321;50.428;8.378;2022-12-07T06:35:15;11.25;;;10.05;;
64854;SDS011;51321;50.428;8.378;2022-12-07T06:37:37;13.10;;;9.23;;
64854;SDS011;51321;50.428;8.378;2022-12-07T06:39:59;11.32;;;9.40;;
64854;SDS011;51321;50.428;8.378;2022-12-07T06:42:23;14.55;;;9.25;;
64854;SDS011;51321;50.428;8.378;2022-12-07T06:44:45;13.02;;;10.05;;
64854;SDS011;51321;50.428;8.378;2022-12-07T06:49:31;18.85;;;12.63;;
64854;SDS011;51321;50.428;8.378;2022-12-07T06:51:53;13.80;;;11.35;;
64854;SDS011;51321;50.428;8.378;2022-12-07T06:54:16;12.43;;;10.82;;
64854;SDS011;51321;50.428;8.378;2022-12-07T06:56:38;11.48;;;8.90;;
64854;SDS011;51321;50.428;8.378;2022-12-07T06:59:01;13.88;;;9.40;;
64854;SDS011;51321;50.428;8.378;2022-12-07T07:01:23;10.88;;;8.25;;
64854;SDS011;51321;50.428;8.378;2022-12-07T07:03:48;12.10;;;9.35;;
64854;SDS011;51321;50.428;8.378;2022-12-07T07:06:11;12.35;;;9.25;;
64854;SDS011;51321;50.428;8.378;2022-12-07T07:08:34;13.73;;;10.57;;
64854;SDS011;51321;50.428;8.378;2022-12-07T07:10:56;11.57;;;9.70;;
64854;SDS011;51321;50.428;8.378;2022-12-07T07:13:18;11.60;;;9.73;;
64854;SDS011;51321;50.428;8.378;2022-12-07T07:15:41;12.80;;;9.63;;
64854;SDS011;51321;50.428;8.378;2022-12-07T07:18:03;12.93;;;9.73;;
64854;SDS011;51321;50.428;8.378;2022-12-07T07:20:26;11.48;;;8.57;;
64854;SDS011;51321;50.428;8.378;2022-12-07T07:25:10;12.65;;;9.75;;
64854;SDS011;51321;50.428;8.378;2022-12-07T07:27:32;10.93;;;9.43;;
64854;SDS011;51321;50.428;8.378;2022-12-07T07:29:54;16.55;;;10.23;;
64854;SDS011;51321;50.428;8.378;2022-12-07T07:32:18;14.40;;;10.02;;
64854;SDS011;51321;50.428;8.378;2022-12-07T07:34:41;12.25;;;8.50;;
64854;SDS011;51321;50.428;8.378;2022-12-07T07:37:03;11.27;;;8.35;;
64854;SDS011;51321;50.428;8.378;2022-12-07T07:39:25;11.57;;;8.02;;
64854;SDS011;51321;50.428;8.378;2022-12-07T07:41:47;12.60;;;9.00;;
64854;SDS011;51321;50.428;8.378;2022-12-07T07:44:18;11.80;;;8.38;;
64854;SDS011;51321;50.428;8.378;2022-12-07T07:46:40;10.82;;;8.43;;
64854;SDS011;51321;50.428;8.378;2022-12-07T07:49:03;10.02;;;7.70;;
64854;SDS011;51321;50.428;8.378;2022-12-07T07:51:25;10.27;;;8.07;;
64854;SDS011;51321;50.428;8.378;2022-12-07T07:53:48;10.75;;;7.95;;
64854;SDS011;51321;50.428;8.378;2022-12-07T07:56:10;11.15;;;8.45;;
64854;SDS011;51321;50.428;8.378;2022-12-07T07:58:32;14.43;;;8.88;;
64854;SDS011;51321;50.428;8.378;2022-12-07T08:00:54;11.05;;;8.70;;
64854;SDS011;51321;50.428;8.378;2022-12-07T08:03:16;11.45;;;7.97;;
64854;SDS011;51321;50.428;8.378;2022-12-07T08:05:39;9.05;;;7.63;;
64854;SDS011;51321;50.428;8.378;2022-12-07T08:08:02;10.60;;;7.88;;
64854;SDS011;51321;50.428;8.378;2022-12-07T08:12:47;9.48;;;7.45;;
64854;SDS011;51321;50.428;8.378;2022-12-07T08:15:27;9.70;;;7.30;;
64854;SDS011;51321;50.428;8.378;2022-12-07T08:17:50;9.50;;;7.50;;
64854;SDS011;51321;50.428;8.378;2022-12-07T08:20:13;10.55;;;7.47;;
64854;SDS011;51321;50.428;8.378;2022-12-07T08:22:36;11.00;;;8.57;;
64854;SDS011;51321;50.428;8.378;2022-12-07T08:24:58;10.35;;;8.18;;
64854;SDS011;51321;50.428;8.378;2022-12-07T08:27:21;14.25;;;7.80;;
64854;SDS011;51321;50.428;8.378;2022-12-07T08:29:47;10.77;;;8.05;;
64854;SDS011;51321;50.428;8.378;2022-12-07T08:32:08;8.18;;;7.28;;
64854;SDS011;51321;50.428;8.378;2022-12-07T08:34:31;10.35;;;7.75;;
64854;SDS011;51321;50.428;8.378;2022-12-07T08:36:53;10.13;;;7.93;;
64854;SDS011;51321;50.428;8.378;2022-12-07T08:39:16;11.23;;;7.07;;
64854;SDS011;51321;50.428;8.378;2022-12-07T08:41:38;8.50;;;6.93;;
64854;SDS011;51321;50.428;8.378;2022-12-07T08:44:00;10.95;;;6.72;;
64854;SDS011;51321;50.428;8.378;2022-12-07T08:48:48;7.72;;;6.70;;
64854;SDS011;51321;50.428;8.378;2022-12-07T08:51:13;9.50;;;7.00;;
64854;SDS011;51321;50.428;8.378;2022-12-07T08:53:37;9.88;;;6.90;;
64854;SDS011;51321;50.428;8.378;2022-12-07T08:56:02;11.05;;;6.90;;
64854;SDS011;51321;50.428;8.378;2022-12-07T08:58:26;9.43;;;7.03;;
64854;SDS011;51321;50.428;8.378;2022-12-07T09:00:49;9.27;;;7.07;;
64854;SDS011;51321;50.428;8.378;2022-12-07T09:03:11;10.07;;;7.15;;
64854;SDS011;51321;50.428;8.378;2022-12-07T09:05:34;9.10;;;6.47;;
64854;SDS011;51321;50.428;8.378;2022-12-07T09:07:56;8.60;;;6.55;;
64854;SDS011;51321;50.428;8.378;2022-12-07T09:10:21;8.00;;;6.70;;
64854;SDS011;51321;50.428;8.378;2022-12-07T09:12:44;8.30;;;6.75;;
64854;SDS011;51321;50.428;8.378;2022-12-07T09:15:07;9.48;;;6.38;;
64854;SDS011;51321;50.428;8.378;2022-12-07T09:17:32;11.13;;;8.32;;
64854;SDS011;51321;50.428;8.378;2022-12-07T09:19:55;10.63;;;7.45;;
64854;SDS011;51321;50.428;8.378;2022-12-07T09:22:17;9.32;;;5.97;;
64854;SDS011;51321;50.428;8.378;2022-12-07T09:24:39;8.45;;;6.20;;
64854;SDS011;51321;50.428;8.378;2022-12-07T09:27:01;8.18;;;6.22;;
64854;SDS011;51321;50.428;8.378;2022-12-07T09:29:27;8.10;;;6.28;;
64854;SDS011;51321;50.428;8.378;2022-12-07T09:31:49;7.88;;;6.03;;
64854;SDS011;51321;50.428;8.378;2022-12-07T09:34:11;6.93;;;5.85;;
64854;SDS011;51321;50.428;8.378;2022-12-07T09:36:33;8.93;;;6.38;;
64854;SDS011;51321;50.428;8.378;2022-12-07T09:38:56;8.10;;;6.32;;
64854;SDS011;51321;50.428;8.378;2022-12-07T09:41:18;11.93;;;7.90;;
64854;SDS011;51321;50.428;8.378;2022-12-07T09:43:40;8.43;;;6.28;;
64854;SDS011;51321;50.428;8.378;2022-12-07T09:48:28;7.13;;;5.10;;
64854;SDS011;51321;50.428;8.378;2022-12-07T09:50:52;7.85;;;6.07;;
64854;SDS011;51321;50.428;8.378;2022-12-07T09:53:19;8.52;;;7.43;;
64854;SDS011;51321;50.428;8.378;2022-12-07T09:55:45;7.45;;;5.40;;
64854;SDS011;51321;50.428;8.378;2022-12-07T09:58:08;8.18;;;5.68;;
64854;SDS011;51321;50.428;8.378;2022-12-07T10:00:39;8.35;;;5.72;;
64854;SDS011;51321;50.428;8.378;2022-12-07T10:03:03;9.45;;;7.03;;
64854;SDS011;51321;50.428;8.378;2022-12-07T10:05:26;8.27;;;6.88;;
64854;SDS011;51321;50.428;8.378;2022-12-07T10:07:51;6.55;;;5.80;;
64854;SDS011;51321;50.428;8.378;2022-12-07T10:10:14;7.20;;;5.47;;
64854;SDS011;51321;50.428;8.378;2022-12-07T10:12:50;6.18;;;5.57;;
64854;SDS011;51321;50.428;8.378;2022-12-07T10:15:15;7.50;;;5.88;;
64854;SDS011;51321;50.428;8.378;2022-12-07T10:17:37;7.25;;;5.25;;
64854;SDS011;51321;50.428;8.378;2022-12-07T10:22:53;9.00;;;5.03;;
64854;SDS011;51321;50.428;8.378;2022-12-07T10:25:18;8.27;;;5.05;;
64854;SDS011;51321;50.428;8.378;2022-12-07T10:27:41;6.40;;;4.40;;
64854;SDS011;51321;50.428;8.378;2022-12-07T10:30:03;7.00;;;4.93;;
64854;SDS011;51321;50.428;8.378;2022-12-07T10:32:35;7.18;;;5.13;;
64854;SDS011;51321;50.428;8.378;2022-12-07T10:35:15;7.47;;;4.70;;
64854;SDS011;51321;50.428;8.378;2022-12-07T10:37:42;4.97;;;4.10;;
64854;SDS011;51321;50.428;8.378;2022-12-07T10:40:10;10.82;;;4.82;;
64854;SDS011;51321;50.428;8.378;2022-12-07T10:42:46;6.68;;;4.57;;
64854;SDS011;51321;50.428;8.378;2022-12-07T10:45:22;6.30;;;4.93;;
64854;SDS011;51321;50.428;8.378;2022-12-07T10:50:23;10.38;;;5.00;;
64854;SDS011;51321;50.428;8.378;2022-12-07T10:53:01;12.20;;;5.57;;
64854;SDS011;51321;50.428;8.378;2022-12-07T10:55:41;10.07;;;6.07;;
64854;SDS011;51321;50.428;8.378;2022-12-07T10:58:24;6.88;;;4.85;;
64854;SDS011;51321;50.428;8.378;2022-12-07T11:00:59;11.32;;;6.18;;
64854;SDS011;51321;50.428;8.378;2022-12-07T11:03:30;7.70;;;5.57;;
64854;SDS011;51321;50.428;8.378;2022-12-07T11:06:07;10.60;;;6.55;;
64854;SDS011;51321;50.428;8.378;2022-12-07T11:08:42;11.82;;;6.78;;
64854;SDS011;51321;50.428;8.378;2022-12-07T11:11:13;9.50;;;7.20;;
64854;SDS011;51321;50.428;8.378;2022-12-07T11:13:40;10.15;;;5.78;;
64854;SDS011;51321;50.428;8.378;2022-12-07T11:16:14;7.60;;;5.50;;
64854;SDS011;51321;50.428;8.378;2022-12-07T11:18:44;6.72;;;4.78;;
64854;SDS011;51321;50.428;8.378;2022-12-07T11:21:15;7.25;;;4.85;;
64854;SDS011;51321;50.428;8.378;2022-12-07T11:23:46;7.50;;;4.32;;
64854;SDS011;51321;50.428;8.378;2022-12-07T11:26:15;5.35;;;4.00;;
64854;SDS011;51321;50.428;8.378;2022-12-07T11:28:50;8.98;;;4.80;;
64854;SDS011;51321;50.428;8.378;2022-12-07T11:31:27;7.25;;;5.13;;
64854;SDS011;51321;50.428;8.378;2022-12-07T11:33:57;10.18;;;5.38;;
64854;SDS011;51321;50.428;8.378;2022-12-07T11:36:31;10.32;;;4.53;;
64854;SDS011;51321;50.428;8.378;2022-12-07T11:39:00;7.27;;;5.20;;
64854;SDS011;51321;50.428;8.378;2022-12-07T11:41:25;9.52;;;5.20;;
64854;SDS011;51321;50.428;8.378;2022-12-07T11:43:53;7.65;;;4.30;;
64854;SDS011;51321;50.428;8.378;2022-12-07T11:46:17;7.60;;;4.68;;
64854;SDS011;51321;50.428;8.378;2022-12-07T11:48:41;7.88;;;4.18;;
64854;SDS011;51321;50.428;8.378;2022-12-07T11:51:09;7.50;;;4.00;;
64854;SDS011;51321;50.428;8.378;2022-12-07T11:53:34;5.15;;;3.85;;
64854;SDS011;51321;50.428;8.378;2022-12-07T11:56:03;7.95;;;3.92;;
64854;SDS011;51321;50.428;8.378;2022-12-07T11:58:45;7.30;;;4.35;;
64854;SDS011;51321;50.428;8.378;2022-12-07T12:01:13;6.95;;;4.28;;
64854;SDS011;51321;50.428;8.378;2022-12-07T12:03:45;4.65;;;4.15;;
64854;SDS011;51321;50.428;8.378;2022-12-07T12:06:08;8.02;;;4.35;;
64854;SDS011;51321;50.428;8.378;2022-12-07T12:10:58;12.98;;;9.18;;
64854;SDS011;51321;50.428;8.378;2022-12-07T12:16:30;6.20;;;3.92;;
64854;SDS011;51321;50.428;8.378;2022-12-07T12:19:11;5.78;;;3.53;;
64854;SDS011;51321;50.428;8.378;2022-12-07T12:21:49;6.13;;;3.95;;
64854;SDS011;51321;50.428;8.378;2022-12-07T12:24:18;8.00;;;4.60;;
64854;SDS011;51321;50.428;8.378;2022-12-07T12:26:48;6.85;;;3.60;;
64854;SDS011;51321;50.428;8.378;2022-12-07T12:29:20;16.73;;;7.75;;
64854;SDS011;51321;50.428;8.378;2022-12-07T12:31:46;5.03;;;3.20;;
64854;SDS011;51321;50.428;8.378;2022-12-07T12:37:00;6.63;;;4.63;;
64854;SDS011;51321;50.428;8.378;2022-12-07T12:39:23;6.30;;;3.58;;
64854;SDS011;51321;50.428;8.378;2022-12-07T12:47:43;4.43;;;2.92;;
64854;SDS011;51321;50.428;8.378;2022-12-07T12:50:16;6.32;;;3.83;;
64854;SDS011;51321;50.428;8.378;2022-12-07T12:52:50;6.80;;;4.07;;
64854;SDS011;51321;50.428;8.378;2022-12-07T12:55:20;6.25;;;3.47;;
64854;SDS011;51321;50.428;8.378;2022-12-07T13:03:56;5.57;;;3.25;;
64854;SDS011;51321;50.428;8.378;2022-12-07T13:06:29;8.10;;;3.50;;
64854;SDS011;51321;50.428;8.378;2022-12-07T13:08:58;10.45;;;4.28;;
64854;SDS011;51321;50.428;8.378;2022-12-07T13:11:25;5.75;;;3.53;;
64854;SDS011;51321;50.428;8.378;2022-12-07T13:13:50;5.47;;;3.80;;
64854;SDS011;51321;50.428;8.378;2022-12-07T13:16:36;8.70;;;4.15;;
64854;SDS011;51321;50.428;8.378;2022-12-07T13:19:23;9.10;;;3.30;;
64854;SDS011;51321;50.428;8.378;2022-12-07T13:25:11;7.40;;;3.20;;
64854;SDS011;51321;50.428;8.378;2022-12-07T13:27:41;7.82;;;3.30;;
64854;SDS011;51321;50.428;8.378;2022-12-07T13:30:09;6.65;;;2.55;;
64854;SDS011;51321;50.428;8.378;2022-12-07T13:32:36;5.25;;;2.13;;
64854;SDS011;51321;50.428;8.378;2022-12-07T13:35:00;12.23;;;2.75;;
64854;SDS011;51321;50.428;8.378;2022-12-07T13:37:42;8.43;;;4.13;;
64854;SDS011;51321;50.428;8.378;2022-12-07T13:40:12;8.75;;;3.42;;
64854;SDS011;51321;50.428;8.378;2022-12-07T13:42:40;9.07;;;3.55;;
64854;SDS011;51321;50.428;8.378;2022-12-07T13:45:17;6.82;;;3.83;;
64854;SDS011;51321;50.428;8.378;2022-12-07T13:48:03;7.28;;;5.25;;
64854;SDS011;51321;50.428;8.378;2022-12-07T13:50:28;6.93;;;3.42;;
64854;SDS011;51321;50.428;8.378;2022-12-07T13:52:54;6.15;;;2.90;;
64854;SDS011;51321;50.428;8.378;2022-12-07T13:55:17;3.78;;;2.38;;
64854;SDS011;51321;50.428;8.378;2022-12-07T13:57:39;5.35;;;2.35;;
64854;SDS011;51321;50.428;8.378;2022-12-07T14:00:03;7.07;;;2.70;;
64854;SDS011;51321;50.428;8.378;2022-12-07T14:02:27;6.80;;;2.78;;
64854;SDS011;51321;50.428;8.378;2022-12-07T14:04:51;8.45;;;3.25;;
64854;SDS011;51321;50.428;8.378;2022-12-07T14:07:22;6.63;;;2.90;;
64854;SDS011;51321;50.428;8.378;2022-12-07T14:12:16;7.85;;;2.38;;
64854;SDS011;51321;50.428;8.378;2022-12-07T14:14:39;7.55;;;3.30;;
64854;SDS011;51321;50.428;8.378;2022-12-07T14:17:11;4.60;;;2.65;;
64854;SDS011;51321;50.428;8.378;2022-12-07T14:19:41;5.70;;;3.50;;
64854;SDS011;51321;50.428;8.378;2022-12-07T14:22:06;8.82;;;3.95;;
64854;SDS011;51321;50.428;8.378;2022-12-07T14:24:30;7.43;;;4.03;;
64854;SDS011;51321;50.428;8.378;2022-12-07T14:27:03;9.32;;;5.30;;
64854;SDS011;51321;50.428;8.378;2022-12-07T14:29:37;8.13;;;4.35;;
64854;SDS011;51321;50.428;8.378;2022-12-07T14:34:37;14.75;;;8.48;;
64854;SDS011;51321;50.428;8.378;2022-12-07T14:37:00;22.15;;;12.85;;
64854;SDS011;51321;50.428;8.378;2022-12-07T14:39:22;8.25;;;4.47;;
64854;SDS011;51321;50.428;8.378;2022-12-07T14:41:45;10.82;;;4.53;;
64854;SDS011;51321;50.428;8.378;2022-12-07T14:44:13;37.60;;;18.88;;
64854;SDS011;51321;50.428;8.378;2022-12-07T14:46:35;10.55;;;6.25;;
64854;SDS011;51321;50.428;8.378;2022-12-07T14:48:57;13.25;;;8.00;;
64854;SDS011;51321;50.428;8.378;2022-12-07T14:51:19;8.88;;;4.78;;
64854;SDS011;51321;50.428;8.378;2022-12-07T14:53:42;3.92;;;1.60;;
64854;SDS011;51321;50.428;8.378;2022-12-07T14:56:07;4.25;;;3.03;;
64854;SDS011;51321;50.428;8.378;2022-12-07T14:58:30;8.48;;;2.55;;
64854;SDS011;51321;50.428;8.378;2022-12-07T15:00:53;9.05;;;3.13;;
64854;SDS011;51321;50.428;8.378;2022-12-07T15:03:15;7.47;;;3.65;;
64854;SDS011;51321;50.428;8.378;2022-12-07T15:05:37;5.38;;;2.58;;
64854;SDS011;51321;50.428;8.378;2022-12-07T15:10:23;5.57;;;4.07;;
64854;SDS011;51321;50.428;8.378;2022-12-07T15:12:49;4.47;;;3.50;;
64854;SDS011;51321;50.428;8.378;2022-12-07T15:15:13;3.78;;;2.33;;
64854;SDS011;51321;50.428;8.378;2022-12-07T15:17:35;2.97;;;1.15;;
64854;SDS011;51321;50.428;8.378;2022-12-07T15:19:57;1.70;;;0.68;;
64854;SDS011;51321;50.428;8.378;2022-12-07T15:22:19;2.30;;;1.05;;
64854;SDS011;51321;50.428;8.378;2022-12-07T15:24:41;2.28;;;0.90;;
64854;SDS011;51321;50.428;8.378;2022-12-07T15:27:03;3.05;;;0.95;;
64854;SDS011;51321;50.428;8.378;2022-12-07T15:29:26;2.50;;;0.90;;
64854;SDS011;51321;50.428;8.378;2022-12-07T15:31:49;1.42;;;0.95;;
64854;SDS011;51321;50.428;8.378;2022-12-07T15:34:12;1.65;;;0.90;;